createdAt,value
2023-05-24T00:00:46.784Z,61.91
2023-05-24T00:03:18.894Z,61.63
2023-05-24T00:05:47.752Z,60.75
2023-05-24T00:08:16.459Z,61.02
2023-05-24T00:10:44.853Z,60.75
2023-05-24T00:13:13.104Z,60.74
2023-05-24T00:15:41.450Z,60.59
2023-05-24T00:18:09.640Z,61.47
2023-05-24T00:20:39.348Z,60.54
2023-05-24T00:23:07.933Z,61.14
2023-05-24T00:25:36.231Z,60.26
2023-05-24T00:28:04.665Z,60.36
2023-05-24T00:30:32.798Z,59.84
2023-05-24T00:33:00.944Z,59.75
2023-05-24T00:35:29.274Z,60.82
2023-05-24T00:37:58.737Z,61.45
2023-05-24T00:40:26.894Z,60.50
2023-05-24T00:42:55.052Z,61.06
2023-05-24T00:45:23.226Z,61.05
2023-05-24T00:47:51.560Z,60.62
2023-05-24T00:50:20.694Z,61.27
2023-05-24T00:52:52.417Z,61.60
2023-05-24T00:55:22.260Z,60.61
2023-05-24T00:57:52.322Z,62.08
2023-05-24T01:00:21.077Z,62.44
2023-05-24T01:02:49.788Z,62.53
2023-05-24T01:05:18.989Z,62.74
2023-05-24T01:08:10.761Z,62.73
2023-05-24T01:10:55.680Z,63.40
2023-05-24T01:13:35.349Z,63.03
2023-05-24T01:16:13.158Z,63.52
2023-05-24T01:18:48.173Z,62.20
2023-05-24T01:21:38.594Z,60.93
2023-05-24T01:24:22.941Z,60.56
2023-05-24T01:27:08.138Z,60.25
2023-05-24T01:29:37.581Z,60.98
2023-05-24T01:32:07.850Z,60.69
2023-05-24T01:34:36.109Z,60.33
2023-05-24T01:37:04.286Z,60.30
2023-05-24T01:39:32.736Z,60.73
2023-05-24T01:42:12.531Z,60.40
2023-05-24T01:44:48.807Z,60.11
2023-05-24T01:47:32.967Z,59.64
2023-05-24T01:50:09.629Z,59.82
2023-05-24T01:52:38.633Z,58.82
2023-05-24T01:55:10.671Z,59.12
2023-05-24T01:57:44.942Z,59.73
2023-05-24T02:00:16.812Z,59.71
2023-05-24T02:02:45.135Z,59.91
2023-05-24T02:05:13.649Z,59.13
2023-05-24T02:07:42.550Z,59.64
2023-05-24T02:10:11.502Z,59.69
2023-05-24T02:12:41.010Z,60.32
2023-05-24T02:15:11.358Z,59.50
2023-05-24T02:17:40.661Z,59.58
2023-05-24T02:20:10.838Z,60.18
2023-05-24T02:22:39.047Z,59.57
2023-05-24T02:25:08.465Z,59.91
2023-05-24T02:27:36.563Z,59.36
2023-05-24T02:30:08.101Z,60.00
2023-05-24T02:32:36.546Z,59.72
2023-05-24T02:35:05.589Z,59.30
2023-05-24T02:37:33.710Z,59.46
2023-05-24T02:40:03.791Z,60.37
2023-05-24T02:42:32.057Z,60.87
2023-05-24T02:45:00.339Z,60.70
2023-05-24T02:47:29.886Z,60.02
2023-05-24T02:49:58.293Z,60.09
2023-05-24T02:52:26.770Z,59.86
2023-05-24T02:54:54.898Z,60.30
2023-05-24T02:57:23.039Z,60.02
2023-05-24T02:59:51.193Z,59.34
2023-05-24T03:02:19.747Z,59.53
2023-05-24T03:04:49.303Z,58.87
2023-05-24T03:07:17.557Z,59.27
2023-05-24T03:09:45.686Z,59.32
2023-05-24T03:12:14.101Z,58.74
2023-05-24T03:14:42.234Z,58.56
2023-05-24T03:17:10.437Z,58.96
2023-05-24T03:19:38.596Z,59.05
2023-05-24T03:22:08.132Z,58.75
2023-05-24T03:24:38.398Z,59.58
2023-05-24T03:27:08.698Z,59.58
2023-05-24T03:29:37.145Z,59.26
2023-05-24T03:32:06.161Z,59.15
2023-05-24T03:34:34.420Z,59.27
2023-05-24T03:37:02.598Z,59.29
2023-05-24T03:39:32.163Z,59.36
2023-05-24T03:42:00.372Z,59.61
2023-05-24T03:44:28.735Z,58.87
2023-05-24T03:46:56.994Z,59.41
2023-05-24T03:49:25.550Z,58.95
2023-05-24T03:51:53.696Z,59.46
2023-05-24T03:54:22.082Z,59.67
2023-05-24T03:56:53.444Z,59.55
2023-05-24T03:59:21.745Z,59.50
2023-05-24T04:01:49.999Z,58.96
2023-05-24T04:04:18.516Z,58.77
2023-05-24T04:06:47.925Z,58.68
2023-05-24T04:09:16.189Z,58.60
2023-05-24T04:11:44.395Z,59.10
2023-05-24T04:14:13.855Z,58.39
2023-05-24T04:16:44.926Z,58.14
2023-05-24T04:19:13.208Z,58.40
2023-05-24T04:21:41.476Z,58.68
2023-05-24T04:24:09.620Z,59.03
2023-05-24T04:26:38.275Z,59.09
2023-05-24T04:29:07.766Z,58.54
2023-05-24T04:31:37.517Z,59.22
2023-05-24T04:34:07.744Z,58.69
2023-05-24T04:36:36.105Z,58.85
2023-05-24T04:39:05.184Z,58.82
2023-05-24T04:41:35.330Z,58.63
2023-05-24T04:44:03.774Z,58.58
2023-05-24T04:46:32.360Z,58.46
2023-05-24T04:49:02.112Z,58.40
2023-05-24T04:51:30.616Z,58.29
2023-05-24T04:53:58.828Z,58.23
2023-05-24T04:56:27.213Z,57.98
2023-05-24T04:58:55.392Z,57.31
2023-05-24T05:01:23.650Z,58.07
2023-05-24T05:03:51.884Z,58.12
2023-05-24T05:06:22.142Z,57.92
2023-05-24T05:08:50.343Z,57.64
2023-05-24T05:11:19.192Z,55.92
2023-05-24T05:13:47.407Z,56.12
2023-05-24T05:16:16.266Z,56.55
2023-05-24T05:18:44.443Z,56.95
2023-05-24T05:21:13.029Z,57.00
2023-05-24T05:23:42.534Z,54.83
2023-05-24T05:26:11.482Z,55.26
2023-05-24T05:28:39.639Z,54.75
2023-05-24T05:31:08.054Z,54.81
2023-05-24T05:33:36.236Z,55.12
2023-05-24T05:36:07.475Z,54.60
2023-05-24T05:38:35.653Z,54.95
2023-05-24T05:41:05.390Z,54.52
2023-05-24T05:43:33.557Z,54.23
2023-05-24T05:46:01.726Z,52.96
2023-05-24T05:48:29.941Z,52.77
2023-05-24T05:50:57.994Z,53.67
2023-05-24T05:53:26.098Z,53.25
2023-05-24T05:55:54.277Z,53.21
2023-05-24T05:58:23.709Z,52.18
2023-05-24T06:00:52.148Z,51.85
2023-05-24T06:03:20.330Z,51.66
2023-05-24T06:05:48.617Z,51.08
2023-05-24T06:08:16.696Z,49.28
2023-05-24T06:10:45.502Z,48.98
2023-05-24T06:13:15.112Z,47.96
2023-05-24T06:15:44.548Z,49.07
2023-05-24T06:18:13.585Z,48.76
2023-05-24T06:20:42.030Z,47.89
2023-05-24T06:23:10.346Z,46.86
2023-05-24T06:25:38.618Z,46.78
2023-05-24T06:28:06.718Z,47.41
2023-05-24T06:30:35.030Z,46.96
2023-05-24T06:33:04.806Z,47.34
2023-05-24T06:35:32.898Z,47.08
2023-05-24T06:38:01.230Z,48.09
2023-05-24T06:40:29.345Z,48.21
2023-05-24T06:42:58.637Z,47.40
2023-05-24T06:45:26.693Z,47.40
2023-05-24T06:47:54.879Z,47.92
2023-05-24T06:50:25.072Z,48.00
2023-05-24T06:52:53.097Z,48.11
2023-05-24T06:55:22.056Z,48.62
2023-05-24T06:57:50.176Z,47.93
2023-05-24T07:00:19.583Z,47.55
2023-05-24T07:02:47.708Z,47.51
2023-05-24T07:05:16.012Z,47.79
2023-05-24T07:07:45.592Z,47.42
2023-05-24T07:10:14.454Z,48.10
2023-05-24T07:12:42.561Z,47.79
2023-05-24T07:15:11.401Z,48.09
2023-05-24T07:17:39.532Z,47.61
2023-05-24T07:20:11.208Z,47.83
2023-05-24T07:22:39.316Z,48.15
2023-05-24T07:25:10.167Z,46.36
2023-05-24T07:27:38.558Z,46.10
2023-05-24T07:30:19.788Z,45.72
2023-05-24T07:32:56.852Z,45.59
2023-05-24T07:35:25.091Z,45.17
2023-05-24T07:37:53.176Z,44.82
2023-05-24T07:40:23.119Z,45.26
2023-05-24T07:42:51.544Z,45.68
2023-05-24T07:45:19.624Z,45.75
2023-05-24T07:47:47.733Z,47.02
2023-05-24T07:50:16.543Z,48.03
2023-05-24T07:52:45.462Z,48.56
2023-05-24T07:55:14.475Z,49.05
2023-05-24T07:57:43.926Z,49.21
2023-05-24T08:00:14.670Z,48.58
2023-05-24T08:02:44.149Z,48.29
2023-05-24T08:05:13.991Z,47.69
2023-05-24T08:07:42.676Z,46.92
2023-05-24T08:10:13.576Z,46.39
2023-05-24T08:12:43.291Z,46.77
2023-05-24T08:15:12.307Z,47.08
2023-05-24T08:17:40.640Z,46.65
2023-05-24T08:20:13.652Z,47.00
2023-05-24T08:22:42.298Z,47.01
2023-05-24T08:25:11.838Z,47.69
2023-05-24T08:27:39.983Z,47.66
2023-05-24T08:30:11.108Z,47.17
2023-05-24T08:32:39.345Z,45.74
2023-05-24T08:35:19.198Z,46.05
2023-05-24T08:37:49.031Z,45.67
2023-05-24T08:40:18.274Z,46.55
2023-05-24T08:42:47.087Z,44.90
2023-05-24T08:45:18.302Z,43.66
2023-05-24T08:47:48.919Z,43.11
2023-05-24T08:50:17.205Z,43.18
2023-05-24T08:52:46.916Z,43.35
2023-05-24T08:55:17.028Z,44.08
2023-05-24T08:57:47.746Z,44.04
2023-05-24T09:00:19.417Z,43.84
2023-05-24T09:02:48.298Z,44.52
2023-05-24T09:05:17.544Z,44.12
2023-05-24T09:07:47.296Z,44.19
2023-05-24T09:10:16.526Z,44.39
2023-05-24T09:12:51.958Z,44.14
2023-05-24T09:15:21.519Z,43.38
2023-05-24T09:17:49.661Z,42.42
2023-05-24T09:20:18.694Z,42.40
2023-05-24T09:22:54.173Z,42.68
2023-05-24T09:25:22.588Z,43.66
2023-05-24T09:27:52.747Z,44.11
2023-05-24T09:30:22.637Z,44.17
2023-05-24T09:32:59.462Z,44.14
2023-05-24T09:35:28.246Z,44.62
2023-05-24T09:37:59.675Z,43.46
2023-05-24T09:40:29.585Z,43.34
2023-05-24T09:43:09.606Z,44.09
2023-05-24T09:45:44.354Z,43.85
2023-05-24T09:48:13.529Z,42.59
2023-05-24T09:50:42.074Z,42.63
2023-05-24T09:53:10.416Z,41.58
2023-05-24T09:55:38.960Z,41.16
2023-05-24T09:58:09.668Z,40.44
2023-05-24T10:00:43.001Z,39.83
2023-05-24T10:03:13.528Z,38.13
2023-05-24T10:05:45.867Z,39.63
2023-05-24T10:08:15.386Z,40.24
2023-05-24T10:10:44.908Z,41.39
2023-05-24T10:13:15.804Z,42.36
2023-05-24T10:15:45.926Z,43.40
2023-05-24T10:18:14.607Z,43.62
2023-05-24T10:20:44.078Z,42.86
2023-05-24T10:23:20.527Z,42.66
2023-05-24T10:25:56.446Z,42.61
2023-05-24T10:28:27.045Z,42.44
2023-05-24T10:31:08.935Z,41.99
2023-05-24T10:33:38.747Z,41.92
2023-05-24T10:36:10.738Z,40.41
2023-05-24T10:38:40.846Z,40.31
2023-05-24T10:41:09.750Z,41.61
2023-05-24T10:43:39.236Z,42.84
2023-05-24T10:46:11.147Z,43.08
2023-05-24T10:48:41.372Z,43.43
2023-05-24T10:51:36.682Z,43.79
2023-05-24T10:54:19.701Z,43.18
2023-05-24T10:56:50.362Z,42.89
2023-05-24T10:59:29.894Z,42.11
2023-05-24T11:02:00.904Z,42.22
2023-05-24T11:04:38.724Z,41.85
2023-05-24T11:07:10.319Z,40.59
2023-05-24T11:09:45.947Z,41.31
2023-05-24T11:12:17.770Z,40.43
2023-05-24T11:14:50.675Z,40.62
2023-05-24T11:17:22.352Z,41.31
2023-05-24T11:19:53.394Z,41.14
2023-05-24T11:22:24.171Z,39.97
2023-05-24T11:24:53.945Z,39.87
2023-05-24T11:27:22.122Z,39.73
2023-05-24T11:29:50.557Z,39.17
2023-05-24T11:32:23.400Z,38.69
2023-05-24T11:34:51.737Z,38.56
2023-05-24T11:37:24.072Z,38.23
2023-05-24T11:39:57.744Z,37.57
2023-05-24T11:42:25.927Z,37.50
2023-05-24T11:44:55.147Z,37.35
2023-05-24T11:47:25.020Z,37.05
2023-05-24T11:49:53.520Z,38.05
2023-05-24T11:52:22.705Z,38.84
2023-05-24T11:54:51.735Z,39.95
2023-05-24T11:57:28.282Z,39.35
2023-05-24T11:59:58.065Z,40.28
2023-05-24T12:02:30.949Z,40.62
2023-05-24T12:05:09.639Z,41.92
2023-05-24T12:07:37.967Z,42.51
2023-05-24T12:10:08.104Z,42.78
2023-05-24T12:12:45.698Z,42.04
2023-05-24T12:15:14.867Z,42.60
2023-05-24T12:17:45.692Z,41.82
2023-05-24T12:20:15.231Z,42.08
2023-05-24T12:22:51.643Z,41.86
2023-05-24T12:25:21.817Z,41.90
2023-05-24T12:27:55.756Z,41.65
2023-05-24T12:30:25.975Z,41.23
2023-05-24T12:32:55.835Z,41.16
2023-05-24T12:35:24.517Z,41.32
2023-05-24T12:38:00.954Z,40.49
2023-05-24T12:40:29.059Z,39.08
2023-05-24T12:42:59.242Z,37.76
2023-05-24T12:45:28.802Z,37.98
2023-05-24T12:48:01.303Z,37.50
2023-05-24T12:50:29.967Z,37.69
2023-05-24T12:52:58.733Z,37.71
2023-05-24T12:55:28.385Z,38.19
2023-05-24T12:57:58.663Z,39.66
2023-05-24T13:00:29.847Z,39.57
2023-05-24T13:03:00.018Z,40.25
2023-05-24T13:05:30.003Z,39.97
2023-05-24T13:07:58.466Z,39.49
2023-05-24T13:10:28.347Z,39.78
2023-05-24T13:12:57.317Z,40.07
2023-05-24T13:15:27.151Z,40.05
2023-05-24T13:17:55.879Z,40.02
2023-05-24T13:20:25.452Z,39.76
2023-05-24T13:22:53.660Z,39.76
2023-05-24T13:25:22.705Z,40.54
2023-05-24T13:27:50.948Z,40.16
2023-05-24T13:30:19.192Z,40.11
2023-05-24T13:32:47.277Z,40.20
2023-05-24T13:35:15.456Z,40.46
2023-05-24T13:37:45.546Z,39.66
2023-05-24T13:40:13.940Z,39.77
2023-05-24T13:42:42.030Z,41.05
2023-05-24T13:45:11.443Z,42.31
2023-05-24T13:47:41.020Z,42.99
2023-05-24T13:50:11.118Z,43.36
2023-05-24T13:52:39.540Z,43.29
2023-05-24T13:55:10.735Z,42.77
2023-05-24T13:57:51.273Z,42.61
2023-05-24T14:00:21.546Z,40.79
2023-05-24T14:02:49.947Z,41.10
2023-05-24T14:05:27.399Z,42.01
2023-05-24T14:07:57.348Z,42.16
2023-05-24T14:10:27.110Z,42.83
2023-05-24T14:13:12.750Z,43.54
2023-05-24T14:15:44.768Z,44.19
2023-05-24T14:18:13.225Z,44.96
2023-05-24T14:20:41.513Z,43.87
2023-05-24T14:23:10.934Z,44.30
2023-05-24T14:25:41.271Z,43.92
2023-05-24T14:28:09.645Z,44.69
2023-05-24T14:30:38.601Z,43.95
2023-05-24T14:33:08.265Z,42.74
2023-05-24T14:35:39.560Z,43.32
2023-05-24T14:38:09.754Z,42.36
2023-05-24T14:40:40.808Z,42.20
2023-05-24T14:43:10.569Z,41.58
2023-05-24T14:45:41.092Z,41.82
2023-05-24T14:48:11.260Z,42.15
2023-05-24T14:50:40.343Z,42.54
2023-05-24T14:53:11.729Z,42.31
2023-05-24T14:55:43.468Z,42.33
2023-05-24T14:58:12.953Z,42.16
2023-05-24T15:00:43.057Z,42.05
2023-05-24T15:03:12.699Z,41.29
2023-05-24T15:05:42.533Z,41.78
2023-05-24T15:08:11.120Z,41.70
2023-05-24T15:10:41.263Z,41.70
2023-05-24T15:13:09.462Z,41.99
2023-05-24T15:15:37.647Z,41.79
2023-05-24T15:18:06.462Z,41.43
2023-05-24T15:20:35.673Z,41.27
2023-05-24T15:23:04.807Z,41.82
2023-05-24T15:25:33.136Z,41.68
2023-05-24T15:28:03.113Z,41.63
2023-05-24T15:30:31.606Z,42.17
2023-05-24T15:32:59.845Z,42.10
2023-05-24T15:35:27.966Z,41.94
2023-05-24T15:37:56.070Z,41.27
2023-05-24T15:40:24.917Z,41.60
2023-05-24T15:42:53.722Z,42.54
2023-05-24T15:45:23.191Z,42.83
2023-05-24T15:47:51.397Z,42.78
2023-05-24T15:50:28.572Z,43.60
2023-05-24T15:53:04.438Z,44.28
2023-05-24T15:55:33.638Z,44.72
2023-05-24T15:58:01.725Z,44.64
2023-05-24T16:00:31.184Z,42.96
2023-05-24T16:02:59.685Z,43.07
2023-05-24T16:05:28.289Z,43.80
2023-05-24T16:07:56.641Z,43.66
2023-05-24T16:10:24.849Z,44.03
2023-05-24T16:12:52.922Z,44.14
2023-05-24T16:15:21.103Z,44.27
2023-05-24T16:17:50.611Z,44.62
2023-05-24T16:20:18.994Z,44.84
2023-05-24T16:22:50.100Z,45.17
2023-05-24T16:25:18.274Z,44.79
2023-05-24T16:27:46.434Z,44.98
2023-05-24T16:30:15.011Z,45.01
2023-05-24T16:32:45.023Z,44.50
2023-05-24T16:35:14.481Z,45.33
2023-05-24T16:37:42.955Z,45.37
2023-05-24T16:40:12.453Z,46.38
2023-05-24T16:42:40.521Z,46.14
2023-05-24T16:45:09.434Z,46.02
2023-05-24T16:47:37.572Z,47.17
2023-05-24T16:50:07.513Z,47.07
2023-05-24T16:52:36.941Z,46.60
2023-05-24T16:55:06.179Z,47.06
2023-05-24T16:57:34.257Z,47.12
2023-05-24T17:00:03.881Z,47.81
2023-05-24T17:02:32.046Z,48.60
2023-05-24T17:05:00.268Z,49.98
2023-05-24T17:07:28.673Z,49.21
2023-05-24T17:09:58.181Z,48.76
2023-05-24T17:12:26.358Z,49.38
2023-05-24T17:14:55.175Z,49.74
2023-05-24T17:17:23.471Z,49.66
2023-05-24T17:19:51.784Z,49.74
2023-05-24T17:22:19.983Z,50.31
2023-05-24T17:24:48.152Z,50.00
2023-05-24T17:27:22.121Z,48.57
2023-05-24T17:29:50.884Z,48.71
2023-05-24T17:32:19.079Z,48.58
2023-05-24T17:34:47.223Z,49.05
2023-05-24T17:37:15.745Z,50.14
2023-05-24T17:39:43.955Z,49.14
2023-05-24T17:42:12.144Z,48.86
2023-05-24T17:44:41.686Z,49.29
2023-05-24T17:47:09.834Z,49.95
2023-05-24T17:49:38.039Z,51.32
2023-05-24T17:52:06.572Z,51.21
2023-05-24T17:54:34.769Z,52.04
2023-05-24T17:57:03.869Z,52.40
2023-05-24T17:59:32.047Z,52.30
2023-05-24T18:02:01.541Z,52.02
2023-05-24T18:04:30.289Z,51.71
2023-05-24T18:06:58.481Z,51.70
2023-05-24T18:09:27.444Z,52.45
2023-05-24T18:11:55.603Z,52.73
2023-05-24T18:14:23.825Z,53.46
2023-05-24T18:16:52.103Z,53.30
2023-05-24T18:19:21.802Z,53.70
2023-05-24T18:21:50.628Z,53.73
2023-05-24T18:24:18.822Z,53.89
2023-05-24T18:26:47.474Z,54.80
2023-05-24T18:29:15.967Z,55.52
2023-05-24T18:31:44.170Z,55.57
2023-05-24T18:34:12.393Z,55.72
2023-05-24T18:36:42.076Z,55.57
2023-05-24T18:39:10.242Z,56.11
2023-05-24T18:41:38.414Z,56.85
2023-05-24T18:44:06.556Z,56.87
2023-05-24T18:46:34.792Z,57.07
2023-05-24T18:49:03.293Z,57.41
2023-05-24T18:51:31.489Z,57.92
2023-05-24T18:54:01.008Z,58.07
2023-05-24T18:56:29.434Z,58.68
2023-05-24T18:58:58.692Z,59.18
2023-05-24T19:01:28.213Z,59.27
2023-05-24T19:03:56.553Z,59.09
2023-05-24T19:06:24.974Z,59.77
2023-05-24T19:08:53.236Z,60.01
2023-05-24T19:11:23.030Z,59.60
2023-05-24T19:13:51.223Z,59.81
2023-05-24T19:16:19.447Z,60.38
2023-05-24T19:18:47.823Z,60.72
2023-05-24T19:21:16.300Z,60.94
2023-05-24T19:23:44.510Z,61.45
2023-05-24T19:26:12.961Z,61.78
2023-05-24T19:28:47.735Z,62.01
2023-05-24T19:31:15.975Z,62.51
2023-05-24T19:33:58.741Z,62.53
2023-05-24T19:36:30.149Z,62.67
2023-05-24T19:38:58.361Z,62.96
2023-05-24T19:41:26.838Z,63.38
2023-05-24T19:43:58.516Z,63.07
2023-05-24T19:46:27.501Z,63.33
2023-05-24T19:48:56.022Z,63.82
2023-05-24T19:51:24.264Z,64.67
2023-05-24T19:53:52.474Z,64.32
2023-05-24T19:56:21.208Z,64.82
2023-05-24T19:58:49.983Z,64.27
2023-05-24T20:01:19.709Z,64.89
2023-05-24T20:03:49.307Z,64.71
2023-05-24T20:06:18.590Z,65.25
2023-05-24T20:08:47.827Z,65.80
2023-05-24T20:11:16.254Z,66.00
2023-05-24T20:13:44.650Z,65.70
2023-05-24T20:16:13.214Z,66.03
2023-05-24T20:18:42.969Z,66.69
2023-05-24T20:21:12.138Z,66.53
2023-05-24T20:23:40.308Z,66.38
2023-05-24T20:26:11.465Z,67.18
2023-05-24T20:28:39.640Z,66.77
2023-05-24T20:31:08.231Z,66.86
2023-05-24T20:33:38.285Z,67.87
2023-05-24T20:36:09.346Z,67.80
2023-05-24T20:38:39.449Z,67.79
2023-05-24T20:41:07.693Z,67.80
2023-05-24T20:43:35.861Z,68.08
2023-05-24T20:46:04.278Z,67.92
2023-05-24T20:48:32.634Z,67.82
2023-05-24T20:51:00.872Z,67.99
2023-05-24T20:53:30.457Z,68.12
2023-05-24T20:55:58.615Z,68.14
2023-05-24T20:58:26.778Z,68.27
2023-05-24T21:00:55.136Z,69.06
2023-05-24T21:03:23.498Z,70.03
2023-05-24T21:05:51.686Z,69.83
2023-05-24T21:08:19.844Z,70.01
2023-05-24T21:10:49.343Z,69.78
2023-05-24T21:13:20.313Z,70.25
2023-05-24T21:15:48.795Z,70.78
2023-05-24T21:18:17.225Z,71.11
2023-05-24T21:20:45.411Z,70.06
2023-05-24T21:23:13.914Z,69.81
2023-05-24T21:25:42.233Z,70.02
2023-05-24T21:28:12.068Z,70.73
2023-05-24T21:30:40.310Z,70.71
2023-05-24T21:33:08.608Z,70.88
2023-05-24T21:35:36.746Z,70.72
2023-05-24T21:38:04.891Z,71.05
2023-05-24T21:40:33.096Z,71.11
2023-05-24T21:43:01.238Z,71.01
2023-05-24T21:45:30.693Z,71.18
2023-05-24T21:47:58.888Z,71.35
2023-05-24T21:50:27.227Z,71.27
2023-05-24T21:52:55.393Z,71.34
2023-05-24T21:55:23.588Z,71.95
2023-05-24T21:57:52.199Z,72.57
2023-05-24T22:00:20.907Z,72.64
2023-05-24T22:02:50.613Z,72.90
2023-05-24T22:05:19.638Z,72.74
2023-05-24T22:07:47.791Z,73.10
2023-05-24T22:10:16.224Z,73.16
2023-05-24T22:12:44.374Z,72.72
2023-05-24T22:15:12.862Z,73.31
2023-05-24T22:17:41.854Z,73.53
2023-05-24T22:20:13.106Z,73.46
2023-05-24T22:22:48.169Z,73.76
2023-05-24T22:25:19.182Z,74.15
2023-05-24T22:27:48.418Z,74.26
2023-05-24T22:30:17.283Z,74.15
2023-05-24T22:32:46.269Z,74.43
2023-05-24T22:35:16.324Z,74.23
2023-05-24T22:37:44.471Z,73.64
2023-05-24T22:40:14.141Z,73.28
2023-05-24T22:42:42.440Z,72.73
2023-05-24T22:45:11.832Z,72.87
2023-05-24T22:47:40.348Z,72.06
2023-05-24T22:50:10.053Z,71.89
2023-05-24T22:52:42.409Z,72.55
2023-05-24T22:55:11.395Z,72.11
2023-05-24T22:57:39.799Z,72.05
2023-05-24T23:00:09.735Z,71.64
2023-05-24T23:02:37.974Z,71.71
2023-05-24T23:05:07.477Z,71.35
2023-05-24T23:07:37.423Z,72.10
2023-05-24T23:10:09.278Z,71.90
2023-05-24T23:12:37.422Z,71.92
2023-05-24T23:15:06.497Z,72.01
2023-05-24T23:17:34.649Z,71.62
2023-05-24T23:20:05.109Z,72.22
2023-05-24T23:22:33.311Z,72.11
2023-05-24T23:25:02.474Z,72.68
2023-05-24T23:27:31.985Z,72.22
2023-05-24T23:30:00.234Z,72.29
2023-05-24T23:32:28.429Z,71.74
2023-05-24T23:34:56.633Z,72.57
2023-05-24T23:37:24.855Z,72.89
2023-05-24T23:39:53.023Z,72.91
2023-05-24T23:42:21.177Z,73.13
2023-05-24T23:44:50.759Z,73.44
2023-05-24T23:47:18.903Z,73.67
2023-05-24T23:49:47.036Z,73.88
2023-05-24T23:52:15.269Z,74.64
2023-05-24T23:54:43.431Z,74.02
2023-05-24T23:57:11.554Z,73.31
2023-05-24T23:59:39.750Z,73.83
